Terminal Aerodrome Forecast
Issued by NWS Green Bay, WI

Home | Current Version | Previous Version | Text Only | Print | Product List | Glossary Off
Versions: 1 2 3 4 5 6 7 8 9 10 11 12 13 14 15 16 17 18 19 20 21 22 23 24 25 26 27 28 29 30 31 32 33 34 35 36 37 38 39 40 41 42 43 44 45 46 47 48

376
FTUS43 KGRB 232331
TAFGRB
TAF
KGRB 232331Z 2400/2424 33007KT P6SM BKN025
      TEMPO 2400/2404 SCT025 BKN040
     FM240400 33007KT P6SM SCT025 BKN040
     FM241200 VRB03KT P6SM SCT030 BKN040
     FM241800 VRB03KT P6SM SCT040 BKN200=

USA.gov is the U.S. government's official web portal to all federal, state and local government web resources and services.